Kaohsiung International Airport
RCKH : now visible

Airfield :











YOU CAN JOIN US ON...

 
LOGIN :

Register | Disclaimer

   EN    FR    IT 

 









Legend :    VFR   Marginal VFR   IFR   Intensive IFR   Very Intensive IFR
Visi :
Ceiling :
>= 8 km
>= 3000ft
5 to 8 km
1000 to 3000 ft
1500m to 5 km
500 to 1000 ft
800 to 1500m
200 to 500 ft
< 800m
< 200 ft
Symbols :   Thunderstorms  Fog  Heavy snow  Heavy precipitations  Wind > 20 kt






- Airport Elevation : 31 ft
- IATA code : KHH


RCKH - Kaohsiung International

CURRENT METAR :
  • 290700Z 25008KT 220V290 9000 FEW015 SCT060 BKN200 31/20 Q1013 NOSIG RMK 27009KT/R09 A2993

EXPIRED METARs :
  • 290630Z 25010KT 220V290 9999 FEW016 SCT040 BKN070 32/20 Q1013 NOSIG RMK 26010KT/R09 A2993
  • 290600Z 27010KT 230V310 9999 FEW016 SCT040 BKN070 31/21 Q1013 NOSIG RMK 26011KT/R09 A2993
  • 290530Z 26012KT 230V290 9999 FEW016 SCT040 BKN200 32/20 Q1013 NOSIG RMK 27011KT/R09 A2993
  • 290503Z 27010KT 240V310 9999 FEW016 SCT032 31/20 Q1013 NOSIG RMK 27011KT/R09 A2993
  • 290430Z 29009KT 250V310 9999 FEW012 SCT032 32/21 Q1013 NOSIG RMK A2994

TAF TAF RCKH
Valid from the 29 at 06:00 until the 30 at 12:00 UTC


290500Z 2906/3012 28008KT 9999 FEW012 SCT040
BECMG 2910/2912 34005KT
TEMPO 2919/3001 05005KT 4000 BR FEW012 BKN032
BECMG 3001/3003 31008KT
TEMPO 3004/3010 25008KT FEW012 BKN032
RCAA FIR / Asia



MET'MAP, your aeronautical weather chart ! - Copyright ORBIFLY December 2007 - Disclaimer

ORBIFLY MET'MAP TEAM :

Programming & Development : Alexandra Zaïnal
Concept & original design : Baudouin d'Aumeries
Assistance for programming : Marc-Olivier Méhu
Technical & hardware support : Manuel Goepfert

Contact : metmap@orbifly.com




SOURCES & CREDITS :

   NOAA       Earth
Advisory